createdAt,value
2023-03-27T00:01:22.763Z,80.83
2023-03-27T00:03:50.914Z,81.24
2023-03-27T00:06:23.210Z,81.07
2023-03-27T00:08:51.418Z,81.25
2023-03-27T00:11:19.211Z,81.08
2023-03-27T00:13:50.075Z,81.30
2023-03-27T00:16:21.998Z,81.71
2023-03-27T00:18:50.491Z,81.81
2023-03-27T00:21:17.553Z,81.64
2023-03-27T00:23:44.944Z,81.35
2023-03-27T00:26:12.685Z,81.39
2023-03-27T00:28:39.964Z,80.95
2023-03-27T00:31:14.499Z,81.17
2023-03-27T00:33:43.218Z,81.19
2023-03-27T00:36:10.850Z,81.66
2023-03-27T00:38:39.873Z,81.45
2023-03-27T00:41:08.139Z,81.83
2023-03-27T00:43:36.324Z,82.08
2023-03-27T00:46:15.664Z,81.99
2023-03-27T00:48:47.380Z,81.78
2023-03-27T00:51:16.789Z,81.87
2023-03-27T00:53:44.562Z,82.12
2023-03-27T00:56:11.676Z,82.36
2023-03-27T00:58:57.070Z,82.89
2023-03-27T01:01:27.336Z,82.78
2023-03-27T01:04:00.151Z,82.96
2023-03-27T01:06:28.803Z,82.33
2023-03-27T01:08:56.530Z,82.72
2023-03-27T01:11:53.062Z,83.42
2023-03-27T01:14:23.649Z,83.27
2023-03-27T01:17:07.715Z,83.48
2023-03-27T01:20:07.306Z,83.67
2023-03-27T01:22:46.250Z,83.68
2023-03-27T01:25:47.943Z,84.01
2023-03-27T01:28:30.074Z,84.01
2023-03-27T01:31:21.304Z,83.90
2023-03-27T01:34:27.334Z,83.72
2023-03-27T01:37:09.780Z,83.68
2023-03-27T01:39:55.185Z,84.13
2023-03-27T01:42:41.113Z,84.67
2023-03-27T01:45:24.492Z,84.83
2023-03-27T01:48:10.798Z,84.83
2023-03-27T01:50:59.537Z,85.02
2023-03-27T01:53:33.263Z,85.22
2023-03-27T01:56:31.440Z,85.39
2023-03-27T01:59:08.997Z,85.82
2023-03-27T02:01:39.503Z,85.90
2023-03-27T02:04:12.995Z,86.14
2023-03-27T02:06:48.622Z,86.67
2023-03-27T02:09:20.578Z,86.54
2023-03-27T02:11:57.045Z,86.52
2023-03-27T02:14:28.698Z,86.63
2023-03-27T02:17:02.268Z,86.34
2023-03-27T02:19:35.911Z,85.76
2023-03-27T02:22:03.690Z,84.99
2023-03-27T02:24:30.963Z,85.31
2023-03-27T02:27:18.175Z,84.95
2023-03-27T02:29:56.159Z,84.73
2023-03-27T02:33:00.376Z,85.13
2023-03-27T02:35:39.553Z,85.46
2023-03-27T02:38:38.743Z,85.90
2023-03-27T02:41:35.562Z,86.16
2023-03-27T02:44:46.263Z,86.41
2023-03-27T02:47:20.434Z,86.58
2023-03-27T02:49:58.810Z,86.45
2023-03-27T02:52:31.980Z,86.18
2023-03-27T02:55:06.587Z,86.22
2023-03-27T02:57:40.382Z,85.26
2023-03-27T03:00:25.569Z,84.96
2023-03-27T03:03:09.266Z,85.03
2023-03-27T03:05:39.703Z,84.73
2023-03-27T03:08:10.336Z,84.69
2023-03-27T03:10:44.981Z,85.06
2023-03-27T03:13:18.382Z,85.11
2023-03-27T03:15:46.640Z,85.25
2023-03-27T03:18:15.085Z,85.63
2023-03-27T03:20:42.836Z,85.37
2023-03-27T03:23:10.456Z,85.70
2023-03-27T03:25:38.036Z,85.73
2023-03-27T03:28:08.474Z,86.07
2023-03-27T03:30:37.579Z,86.33
2023-03-27T03:33:04.833Z,86.36
2023-03-27T03:35:31.841Z,86.52
2023-03-27T03:37:59.537Z,86.46
2023-03-27T03:40:29.684Z,86.34
2023-03-27T03:42:59.950Z,86.21
2023-03-27T03:45:27.094Z,86.46
2023-03-27T03:47:55.043Z,86.53
2023-03-27T03:50:22.111Z,86.26
2023-03-27T03:52:51.042Z,86.37
2023-03-27T03:55:18.143Z,86.33
2023-03-27T03:57:47.756Z,86.64
2023-03-27T04:00:18.893Z,86.96
2023-03-27T04:02:49.546Z,86.48
2023-03-27T04:08:20.536Z,86.57
2023-03-27T04:10:48.406Z,87.26
2023-03-27T04:13:15.670Z,87.12
2023-03-27T04:15:45.433Z,86.73
2023-03-27T04:18:15.021Z,86.31
2023-03-27T04:20:43.088Z,85.98
2023-03-27T04:23:10.219Z,86.13
2023-03-27T04:25:38.282Z,86.02
2023-03-27T04:28:05.715Z,85.83
2023-03-27T04:30:37.580Z,85.68
2023-03-27T04:33:08.958Z,85.69
2023-03-27T04:35:41.036Z,86.52
2023-03-27T04:38:08.810Z,87.51
2023-03-27T04:40:38.801Z,88.13
2023-03-27T04:43:05.893Z,87.25
2023-03-27T04:45:33.823Z,85.05
2023-03-27T04:48:04.039Z,83.38
2023-03-27T04:50:44.539Z,81.03
2023-03-27T04:53:12.461Z,79.95
2023-03-27T04:55:40.836Z,79.33
2023-03-27T04:58:08.402Z,79.17
2023-03-27T05:00:36.456Z,78.56
2023-03-27T05:03:03.888Z,78.56
2023-03-27T05:05:32.292Z,78.74
2023-03-27T05:07:59.495Z,78.69
2023-03-27T05:10:28.665Z,78.36
2023-03-27T05:12:58.422Z,78.14
2023-03-27T05:15:25.928Z,77.93
2023-03-27T05:17:55.521Z,77.77
2023-03-27T05:20:24.694Z,77.49
2023-03-27T05:22:56.444Z,77.36
2023-03-27T05:25:24.953Z,77.03
2023-03-27T05:27:54.414Z,76.59
2023-03-27T05:30:29.237Z,76.49
2023-03-27T05:33:00.818Z,76.33
2023-03-27T05:35:28.761Z,75.97
2023-03-27T05:37:57.757Z,76.19
2023-03-27T05:40:26.995Z,76.08
2023-03-27T05:42:57.651Z,75.76
2023-03-27T05:45:28.177Z,75.46
2023-03-27T05:48:00.373Z,75.20
2023-03-27T05:50:30.589Z,75.37
2023-03-27T05:52:59.470Z,75.59
2023-03-27T05:55:27.987Z,75.32
2023-03-27T05:57:55.203Z,75.06
2023-03-27T06:00:27.757Z,75.18
2023-03-27T06:03:00.091Z,74.57
2023-03-27T06:05:29.909Z,74.23
2023-03-27T06:08:00.244Z,73.71
2023-03-27T06:10:29.431Z,72.91
2023-03-27T06:13:05.258Z,72.79
2023-03-27T06:15:33.928Z,71.88
2023-03-27T06:18:01.219Z,70.99
2023-03-27T06:20:29.242Z,70.19
2023-03-27T06:22:59.764Z,70.21
2023-03-27T06:25:31.393Z,70.63
2023-03-27T06:27:58.865Z,69.93
2023-03-27T06:30:27.939Z,69.85
2023-03-27T06:32:58.582Z,69.19
2023-03-27T06:35:31.958Z,68.94
2023-03-27T06:38:00.080Z,69.46
2023-03-27T06:40:29.189Z,69.66
2023-03-27T06:43:04.483Z,68.75
2023-03-27T06:45:34.778Z,68.80
2023-03-27T06:48:18.005Z,67.96
2023-03-27T06:50:51.238Z,67.58
2023-03-27T06:55:52.114Z,67.08
2023-03-27T06:58:19.766Z,66.66
2023-03-27T07:00:48.963Z,66.53
2023-03-27T07:03:16.353Z,65.97
2023-03-27T07:05:47.050Z,66.10
2023-03-27T07:10:59.778Z,65.52
2023-03-27T07:13:35.537Z,65.03
2023-03-27T07:16:18.682Z,64.98
2023-03-27T07:18:46.574Z,64.17
2023-03-27T07:21:15.502Z,63.71
2023-03-27T07:23:43.229Z,62.43
2023-03-27T07:26:10.851Z,61.90
2023-03-27T07:28:38.920Z,61.43
2023-03-27T07:31:16.754Z,60.89
2023-03-27T07:34:05.293Z,59.88
2023-03-27T07:36:33.948Z,59.46
2023-03-27T07:39:01.727Z,58.03
2023-03-27T07:41:33.813Z,56.93
2023-03-27T07:44:02.166Z,54.43
2023-03-27T07:46:33.152Z,55.57
2023-03-27T07:49:05.392Z,52.49
2023-03-27T07:51:33.402Z,52.46
2023-03-27T07:54:04.286Z,52.31
2023-03-27T07:56:34.057Z,51.55
2023-03-27T07:59:08.419Z,50.60
2023-03-27T08:01:46.651Z,50.72
2023-03-27T08:04:13.819Z,50.95
2023-03-27T08:06:41.346Z,49.44
2023-03-27T08:09:08.649Z,49.93
2023-03-27T08:11:46.184Z,49.55
2023-03-27T08:14:13.554Z,49.08
2023-03-27T08:16:41.275Z,48.91
2023-03-27T08:19:11.443Z,49.53
2023-03-27T08:21:40.229Z,49.45
2023-03-27T08:24:10.325Z,48.57
2023-03-27T08:26:38.248Z,47.92
2023-03-27T08:29:06.063Z,46.73
2023-03-27T08:31:36.556Z,46.23
2023-03-27T08:34:05.462Z,45.38
2023-03-27T08:36:35.635Z,42.73
2023-03-27T08:39:08.618Z,42.87
2023-03-27T08:41:59.249Z,41.57
2023-03-27T08:44:28.759Z,38.51
2023-03-27T08:47:13.427Z,36.89
2023-03-27T08:49:58.036Z,35.45
2023-03-27T08:52:31.625Z,32.45
2023-03-27T08:55:05.586Z,32.30
2023-03-27T08:57:39.302Z,30.59
2023-03-27T09:00:21.307Z,29.32
2023-03-27T09:03:07.614Z,29.47
2023-03-27T09:06:06.627Z,30.15
2023-03-27T09:08:55.693Z,27.35
2023-03-27T09:11:44.639Z,27.81
2023-03-27T09:14:37.381Z,27.94
2023-03-27T09:17:16.208Z,26.29
2023-03-27T09:20:20.294Z,26.21
2023-03-27T09:22:55.416Z,25.86
2023-03-27T09:25:36.051Z,26.07
2023-03-27T09:28:04.410Z,25.90
2023-03-27T09:30:33.965Z,24.78
2023-03-27T09:33:06.113Z,24.79
2023-03-27T09:35:35.775Z,25.05
2023-03-27T09:38:10.446Z,24.50
2023-03-27T09:40:49.142Z,25.50
2023-03-27T09:43:26.640Z,24.68
2023-03-27T09:45:56.605Z,26.28
2023-03-27T09:48:34.890Z,28.19
2023-03-27T09:51:02.668Z,29.31
2023-03-27T09:53:29.849Z,29.46
2023-03-27T09:56:23.245Z,29.69
2023-03-27T09:58:51.360Z,29.70
2023-03-27T10:01:32.763Z,27.50
2023-03-27T10:04:00.804Z,26.36
2023-03-27T10:06:36.498Z,26.56
2023-03-27T10:09:34.334Z,26.42
2023-03-27T10:12:08.063Z,26.78
2023-03-27T10:14:37.977Z,27.86
2023-03-27T10:17:14.184Z,29.10
2023-03-27T10:19:42.328Z,30.54
2023-03-27T10:22:21.827Z,31.29
2023-03-27T10:24:53.176Z,31.74
2023-03-27T10:27:26.319Z,31.97
2023-03-27T10:29:53.504Z,31.67
2023-03-27T10:32:45.278Z,32.12
2023-03-27T10:35:32.710Z,32.53
2023-03-27T10:38:03.586Z,33.01
2023-03-27T10:40:34.951Z,33.57
2023-03-27T10:43:26.769Z,33.75
2023-03-27T10:46:11.863Z,33.94
2023-03-27T10:49:13.770Z,33.35
2023-03-27T10:51:48.450Z,33.51
2023-03-27T10:54:38.857Z,32.18
2023-03-27T10:57:14.360Z,29.78
2023-03-27T10:59:55.999Z,29.03
2023-03-27T11:02:48.130Z,29.55
2023-03-27T11:05:31.256Z,29.67
2023-03-27T11:08:28.353Z,30.27
2023-03-27T11:11:00.016Z,29.39
2023-03-27T11:13:38.280Z,29.79
2023-03-27T11:16:23.710Z,30.48
2023-03-27T11:19:22.660Z,30.06
2023-03-27T11:21:54.790Z,29.25
2023-03-27T11:24:28.781Z,28.89
2023-03-27T11:27:10.037Z,25.93
2023-03-27T11:29:45.471Z,26.31
2023-03-27T11:35:28.733Z,26.31
2023-03-27T11:38:02.714Z,26.44
2023-03-27T11:40:37.720Z,27.31
2023-03-27T11:43:05.870Z,27.25
2023-03-27T11:45:48.972Z,27.98
2023-03-27T11:48:42.351Z,27.73
2023-03-27T11:54:15.967Z,26.22
2023-03-27T11:56:54.882Z,26.96
2023-03-27T11:59:51.445Z,26.68
2023-03-27T12:03:07.055Z,26.60
2023-03-27T12:06:05.628Z,26.94
2023-03-27T12:08:45.939Z,25.92
2023-03-27T12:11:13.613Z,26.81
2023-03-27T12:14:05.504Z,27.52
2023-03-27T12:19:29.695Z,28.87
2023-03-27T12:22:31.712Z,29.06
2023-03-27T12:25:06.298Z,29.61
2023-03-27T12:27:48.837Z,30.43
2023-03-27T12:30:50.009Z,31.52
2023-03-27T12:33:37.971Z,31.98
2023-03-27T12:36:11.928Z,32.67
2023-03-27T12:38:42.596Z,33.20
2023-03-27T12:41:13.096Z,33.81
2023-03-27T12:43:46.011Z,34.01
2023-03-27T12:46:25.940Z,34.25
2023-03-27T12:49:13.491Z,34.36
2023-03-27T12:52:15.221Z,34.87
2023-03-27T12:55:26.997Z,35.43
2023-03-27T12:57:54.708Z,35.72
2023-03-27T13:00:25.810Z,35.97
2023-03-27T13:03:03.660Z,36.17
2023-03-27T13:05:36.790Z,35.84
2023-03-27T13:08:42.864Z,36.30
2023-03-27T13:11:44.051Z,36.21
2023-03-27T13:14:28.198Z,36.39
2023-03-27T13:17:44.615Z,37.08
2023-03-27T13:20:58.587Z,37.25
2023-03-27T13:24:08.777Z,37.17
2023-03-27T13:27:18.622Z,37.59
2023-03-27T13:29:53.442Z,37.49
2023-03-27T13:32:36.999Z,37.96
2023-03-27T13:35:20.627Z,38.37
2023-03-27T13:37:58.607Z,38.06
2023-03-27T13:40:31.891Z,38.57
2023-03-27T13:43:26.366Z,39.31
2023-03-27T13:46:05.920Z,39.93
2023-03-27T13:48:46.660Z,39.90
2023-03-27T13:51:34.346Z,40.43
2023-03-27T13:54:52.484Z,40.93
2023-03-27T13:57:44.825Z,41.35
2023-03-27T14:00:33.739Z,41.65
2023-03-27T14:03:57.285Z,41.90
2023-03-27T14:06:44.242Z,43.21
2023-03-27T14:10:09.005Z,44.12
2023-03-27T14:16:17.131Z,44.44
2023-03-27T14:18:46.897Z,44.72
2023-03-27T14:21:35.709Z,44.95
2023-03-27T14:24:20.329Z,45.04
2023-03-27T14:26:48.808Z,45.72
2023-03-27T14:29:18.745Z,45.49
2023-03-27T14:31:50.970Z,43.60
2023-03-27T14:34:31.771Z,42.97
2023-03-27T14:37:29.165Z,42.58
2023-03-27T14:39:58.205Z,42.37
2023-03-27T14:42:40.509Z,41.74
2023-03-27T14:45:18.109Z,42.17
2023-03-27T14:47:49.930Z,42.08
2023-03-27T14:50:17.741Z,41.86
2023-03-27T14:52:45.351Z,41.94
2023-03-27T14:55:19.845Z,42.03
2023-03-27T14:57:59.717Z,41.74
2023-03-27T15:00:31.993Z,41.64
2023-03-27T15:03:07.280Z,41.63
2023-03-27T15:05:34.383Z,41.69
2023-03-27T15:08:04.981Z,42.10
2023-03-27T15:10:32.824Z,41.90
2023-03-27T15:13:00.510Z,42.25
2023-03-27T15:15:42.900Z,42.63
2023-03-27T15:18:15.458Z,42.85
2023-03-27T15:20:43.746Z,42.99
2023-03-27T15:23:12.232Z,42.92
2023-03-27T15:26:15.288Z,43.57
2023-03-27T15:28:53.531Z,43.50
2023-03-27T15:31:21.204Z,45.14
2023-03-27T15:34:09.920Z,47.38
2023-03-27T15:36:43.211Z,48.43
2023-03-27T15:39:21.327Z,49.84
2023-03-27T15:41:53.778Z,50.46
2023-03-27T15:44:24.324Z,51.05
2023-03-27T15:46:54.785Z,51.97
2023-03-27T15:49:38.462Z,52.20
2023-03-27T15:52:31.703Z,53.03
2023-03-27T15:55:00.025Z,53.38
2023-03-27T15:57:32.377Z,53.24
2023-03-27T16:00:11.164Z,53.71
2023-03-27T16:02:38.519Z,53.92
2023-03-27T16:05:12.067Z,54.11
2023-03-27T16:07:48.645Z,54.27
2023-03-27T16:10:38.084Z,54.38
2023-03-27T16:13:07.627Z,54.33
2023-03-27T16:15:45.264Z,54.55
2023-03-27T16:18:32.512Z,54.34
2023-03-27T16:21:08.494Z,54.35
2023-03-27T16:23:35.808Z,54.84
2023-03-27T16:26:05.414Z,55.02
2023-03-27T16:28:33.340Z,55.18
2023-03-27T16:31:17.462Z,54.82
2023-03-27T16:33:46.214Z,54.84
2023-03-27T16:36:24.403Z,53.76
2023-03-27T16:38:52.099Z,54.20
2023-03-27T16:41:23.962Z,53.86
2023-03-27T16:43:51.348Z,53.38
2023-03-27T16:46:24.382Z,53.78
2023-03-27T16:48:52.935Z,54.03
2023-03-27T16:51:24.633Z,54.17
2023-03-27T16:53:53.026Z,53.95
2023-03-27T16:56:21.671Z,54.24
2023-03-27T16:58:49.428Z,54.94
2023-03-27T17:01:24.476Z,55.00
2023-03-27T17:03:51.787Z,55.25
2023-03-27T17:06:22.903Z,55.77
2023-03-27T17:08:55.472Z,55.84
2023-03-27T17:11:23.700Z,56.13
2023-03-27T17:13:54.247Z,56.24
2023-03-27T17:16:30.095Z,56.79
2023-03-27T17:18:57.592Z,56.24
2023-03-27T17:21:26.900Z,56.33
2023-03-27T17:23:54.413Z,56.53
2023-03-27T17:26:28.652Z,56.08
2023-03-27T17:28:56.420Z,55.99
2023-03-27T17:31:24.194Z,56.45
2023-03-27T17:33:51.493Z,56.29
2023-03-27T17:36:29.795Z,55.99
2023-03-27T17:39:08.113Z,55.82
2023-03-27T17:41:35.705Z,55.87
2023-03-27T17:44:03.093Z,56.08
2023-03-27T17:46:31.082Z,56.88
2023-03-27T17:48:58.571Z,56.55
2023-03-27T17:51:26.273Z,56.82
2023-03-27T17:53:53.662Z,57.13
2023-03-27T17:56:21.979Z,57.22
2023-03-27T17:58:50.292Z,57.22
2023-03-27T18:01:20.616Z,57.55
2023-03-27T18:03:48.589Z,57.62
2023-03-27T18:06:18.160Z,57.18
2023-03-27T18:08:46.225Z,56.94
2023-03-27T18:11:15.744Z,56.37
2023-03-27T18:13:42.874Z,56.26
2023-03-27T18:16:13.544Z,56.06
2023-03-27T18:18:40.801Z,55.35
2023-03-27T18:21:08.925Z,55.65
2023-03-27T18:23:45.973Z,55.45
2023-03-27T18:26:14.765Z,55.14
2023-03-27T18:28:41.783Z,54.97
2023-03-27T18:31:11.939Z,54.69
2023-03-27T18:33:39.609Z,54.51
2023-03-27T18:36:10.936Z,54.18
2023-03-27T18:38:40.434Z,54.28
2023-03-27T18:41:08.942Z,53.97
2023-03-27T18:43:36.717Z,54.01
2023-03-27T18:46:06.821Z,53.79
2023-03-27T18:48:35.191Z,53.74
2023-03-27T18:51:05.485Z,53.64
2023-03-27T18:53:32.955Z,53.69
2023-03-27T18:56:00.890Z,54.01
2023-03-27T18:58:29.413Z,54.34
2023-03-27T19:00:57.881Z,54.00
2023-03-27T19:03:30.563Z,53.96
2023-03-27T19:06:01.929Z,54.36
2023-03-27T19:08:29.723Z,54.21
2023-03-27T19:10:57.994Z,54.48
2023-03-27T19:13:25.801Z,54.74
2023-03-27T19:15:54.953Z,54.73
2023-03-27T19:18:22.167Z,55.21
2023-03-27T19:20:50.233Z,55.32
2023-03-27T19:23:18.489Z,55.36
2023-03-27T19:25:48.537Z,55.15
2023-03-27T19:28:15.831Z,55.51
2023-03-27T19:30:43.410Z,55.77
2023-03-27T19:33:11.683Z,55.93
2023-03-27T19:35:56.269Z,55.85
2023-03-27T19:38:28.894Z,56.37
2023-03-27T19:40:57.828Z,57.10
2023-03-27T19:43:25.190Z,57.71
2023-03-27T19:46:14.984Z,58.06
2023-03-27T19:51:30.873Z,59.28
2023-03-27T19:53:57.985Z,59.66
2023-03-27T19:56:28.261Z,60.18
2023-03-27T19:58:56.240Z,61.04
2023-03-27T20:01:28.476Z,61.27
2023-03-27T20:03:57.370Z,62.00
2023-03-27T20:06:27.164Z,62.43
2023-03-27T20:08:54.558Z,63.59
2023-03-27T20:11:23.418Z,65.04
2023-03-27T20:14:03.868Z,65.93
2023-03-27T20:16:32.452Z,67.07
2023-03-27T20:22:05.316Z,68.40
2023-03-27T20:24:32.477Z,69.46
2023-03-27T20:27:03.356Z,69.96
2023-03-27T20:29:30.705Z,71.28
2023-03-27T20:31:58.304Z,72.10
2023-03-27T20:34:25.501Z,73.11
2023-03-27T20:36:53.341Z,73.63
2023-03-27T20:39:21.380Z,73.52
2023-03-27T20:41:49.173Z,73.30
2023-03-27T20:44:16.499Z,73.42
2023-03-27T20:46:51.310Z,74.00
2023-03-27T20:51:59.951Z,76.24
2023-03-27T20:54:27.519Z,76.26
2023-03-27T20:56:55.060Z,76.42
2023-03-27T20:59:23.082Z,77.24
2023-03-27T21:01:57.669Z,78.05
2023-03-27T21:04:26.582Z,77.84
2023-03-27T21:06:54.991Z,77.41
2023-03-27T21:09:24.355Z,77.49
2023-03-27T21:11:51.707Z,77.66
2023-03-27T21:14:22.353Z,77.35
2023-03-27T21:16:49.840Z,76.89
2023-03-27T21:19:17.755Z,76.45
2023-03-27T21:21:45.287Z,76.11
2023-03-27T21:24:13.399Z,75.71
2023-03-27T21:26:41.620Z,76.37
2023-03-27T21:29:11.988Z,76.00
2023-03-27T21:31:40.604Z,76.20
2023-03-27T21:34:09.104Z,75.78
2023-03-27T21:36:38.089Z,76.02
2023-03-27T21:39:05.581Z,76.88
2023-03-27T21:41:33.170Z,76.92
2023-03-27T21:44:00.567Z,76.74
2023-03-27T21:46:28.120Z,77.11
2023-03-27T21:48:56.272Z,76.95
2023-03-27T21:51:24.896Z,76.58
2023-03-27T21:53:53.281Z,76.68
2023-03-27T21:56:20.840Z,76.73
2023-03-27T21:58:48.148Z,76.80
2023-03-27T22:01:15.716Z,76.74
2023-03-27T22:03:42.726Z,76.29
2023-03-27T22:06:12.965Z,76.18
2023-03-27T22:08:43.120Z,76.16
2023-03-27T22:11:12.472Z,76.07
2023-03-27T22:13:40.378Z,76.67
2023-03-27T22:16:13.608Z,77.02
2023-03-27T22:18:40.875Z,77.32
2023-03-27T22:21:20.208Z,77.59
2023-03-27T22:23:49.222Z,78.36
2023-03-27T22:26:18.144Z,78.37
2023-03-27T22:28:45.345Z,78.87
2023-03-27T22:31:12.919Z,79.14
2023-03-27T22:33:41.131Z,79.58
2023-03-27T22:36:11.180Z,79.75
2023-03-27T22:38:42.427Z,80.12
2023-03-27T22:41:12.195Z,80.28
2023-03-27T22:43:39.703Z,80.90
2023-03-27T22:46:16.920Z,81.05
2023-03-27T22:48:44.628Z,81.32
2023-03-27T22:51:12.899Z,81.77
2023-03-27T22:53:41.039Z,82.32
2023-03-27T22:56:08.954Z,82.62
2023-03-27T22:58:36.180Z,83.15
2023-03-27T23:01:05.402Z,83.84
2023-03-27T23:03:33.437Z,83.73
2023-03-27T23:06:01.273Z,84.02
2023-03-27T23:08:29.219Z,84.47
2023-03-27T23:11:04.956Z,84.32
2023-03-27T23:13:34.365Z,84.63
2023-03-27T23:16:02.137Z,84.76
2023-03-27T23:18:29.389Z,84.81
2023-03-27T23:20:59.550Z,85.59
2023-03-27T23:23:28.002Z,85.49
2023-03-27T23:25:55.995Z,86.06
2023-03-27T23:28:23.691Z,86.01
2023-03-27T23:31:03.069Z,86.14
2023-03-27T23:33:35.420Z,86.09
2023-03-27T23:36:18.614Z,86.38
2023-03-27T23:38:45.802Z,86.15
2023-03-27T23:41:15.471Z,86.22
2023-03-27T23:43:42.815Z,86.06
2023-03-27T23:46:11.142Z,85.78
2023-03-27T23:48:40.392Z,85.85
2023-03-27T23:51:08.833Z,85.90
2023-03-27T23:53:36.803Z,85.73
2023-03-27T23:56:04.624Z,85.76
2023-03-27T23:58:34.636Z,85.57
